Time;durP1;ratioP1;P1;durP2;ratioP2;P2;SDS_P1;SDS_P2;PMS_P1;PMS_P2;Temp;Humidity;BMP_temperature;BMP_pressure;BME280_temperature;BME280_humidity;BME280_pressure;Samples;Min_cycle;Max_cycle;Signal;HPM_P1;HPM_P2
2023/01/09 00:01:55;;;;;;;145.53;56.00;;;;;;;-141.97;85.21;47724.75;5016984;28;20415;-83
2023/01/09 00:04:21;;;;;;;128.77;52.07;;;;;;;-141.97;85.47;47753.56;5015296;28;20210;-83
2023/01/09 00:06:52;;;;;;;113.77;48.33;;;;;;;-141.97;85.27;47674.78;5015069;28;20269;-85
2023/01/09 00:09:19;;;;;;;124.28;52.20;;;;;;;-141.97;85.61;47745.88;5016540;28;20683;-85
2023/01/09 00:11:45;;;;;;;128.80;52.30;;;;;;;-141.97;85.04;47688.22;5016529;28;20650;-84
2023/01/09 00:14:10;;;;;;;117.80;48.27;;;;;;;-141.97;83.77;47669.00;5020014;28;20413;-84
2023/01/09 00:16:36;;;;;;;113.80;48.37;;;;;;;-141.97;83.23;47726.66;5016403;28;20167;-84
2023/01/09 00:19:01;;;;;;;117.60;47.07;;;;;;;-141.97;83.44;47711.28;5014902;28;20170;-84
2023/01/09 00:21:26;;;;;;;102.47;43.63;;;;;;;-141.97;82.97;47776.63;5014844;28;20656;-85
2023/01/09 00:23:53;;;;;;;110.63;46.03;;;;;;;-141.97;82.83;47680.53;5014696;28;20173;-84
2023/01/09 00:26:19;;;;;;;112.57;46.73;;;;;;;-141.97;82.84;47747.81;5013187;28;20190;-84
2023/01/09 00:28:46;;;;;;;107.20;46.60;;;;;;;-141.97;82.60;47713.22;5013776;28;20921;-84
2023/01/09 00:31:12;;;;;;;117.93;49.57;;;;;;;-141.97;82.14;47753.56;5014660;28;20627;-84
2023/01/09 00:33:41;;;;;;;113.03;50.47;;;;;;;-141.97;82.36;47757.41;5014437;28;20394;-84
2023/01/09 00:36:07;;;;;;;120.27;49.37;;;;;;;-141.97;82.30;47697.84;5013423;28;20242;-84
2023/01/09 00:38:38;;;;;;;107.47;48.00;;;;;;;-141.97;82.38;47665.16;5013315;28;20437;-84
2023/01/09 00:41:06;;;;;;;112.80;47.60;;;;;;;-141.97;82.29;47726.66;5013277;28;20455;-84
2023/01/09 00:43:36;;;;;;;107.70;46.40;;;;;;;-141.97;82.12;47718.97;5013339;28;21105;-84
2023/01/09 00:46:05;;;;;;;104.70;45.53;;;;;;;-141.97;82.24;47730.50;5013037;28;20414;-84
2023/01/09 00:48:32;;;;;;;108.37;44.13;;;;;;;-141.97;82.50;47626.72;5012943;28;20402;-84
2023/01/09 00:50:58;;;;;;;100.07;44.33;;;;;;;-141.97;82.49;47659.38;5014204;28;20933;-84
2023/01/09 00:53:28;;;;;;;98.40;43.67;;;;;;;-141.97;82.47;47672.84;5012880;28;20510;-85
2023/01/09 00:55:58;;;;;;;103.10;41.17;;;;;;;-141.97;82.66;47690.16;5013932;28;20410;-85
2023/01/09 00:58:23;;;;;;;92.73;40.47;;;;;;;-141.97;83.05;47703.59;5012634;28;20416;-85
2023/01/09 01:00:49;;;;;;;102.30;42.47;;;;;;;-141.97;82.54;47684.38;5012867;28;20454;-84
2023/01/09 01:03:14;;;;;;;86.50;38.40;;;;;;;-141.97;82.70;47717.06;5013872;28;20167;-84
2023/01/09 01:08:24;;;;;;;82.63;34.83;;;;;;;-141.97;84.39;47718.97;5017022;28;20166;-84
2023/01/09 01:10:49;;;;;;;82.83;36.03;;;;;;;-141.97;85.20;47713.22;5012467;28;20417;-84
2023/01/09 01:13:15;;;;;;;83.47;35.57;;;;;;;-141.97;85.32;47728.59;5012210;28;20191;-84
2023/01/09 01:15:42;;;;;;;86.57;35.63;;;;;;;-141.97;85.13;47730.50;5012108;28;20179;-84
2023/01/09 01:18:12;;;;;;;81.97;36.65;;;;;;;-141.97;84.81;47678.63;5011855;28;20183;-84
2023/01/09 01:20:42;;;;;;;84.77;37.70;;;;;;;-141.97;84.83;47711.28;5013248;28;20190;-84
2023/01/09 01:23:08;;;;;;;80.88;35.72;;;;;;;-141.97;84.84;47718.97;5012059;28;20410;-84
2023/01/09 01:25:38;;;;;;;83.60;37.43;;;;;;;-141.97;84.79;47726.66;5013214;28;20173;-84
2023/01/09 01:28:04;;;;;;;80.40;36.33;;;;;;;-141.97;85.31;47705.53;5013556;28;20305;-84
2023/01/09 01:30:30;;;;;;;86.15;37.03;;;;;;;-141.97;85.50;47655.53;5013333;28;20159;-84
2023/01/09 01:32:55;;;;;;;81.57;34.90;;;;;;;-141.97;85.91;47761.25;5011934;28;20166;-84
2023/01/09 01:35:21;;;;;;;87.07;38.97;;;;;;;-141.97;85.59;47765.09;5014046;28;20178;-84
2023/01/09 01:37:48;;;;;;;118.47;47.77;;;;;;;-141.97;86.21;47684.38;5016346;28;20175;-84
2023/01/09 01:40:14;;;;;;;138.00;53.88;;;;;;;-141.97;86.20;47703.59;5014696;28;20218;-84
2023/01/09 01:42:51;;;;;;;132.18;54.38;;;;;;;-141.97;85.17;47688.22;5013428;28;20199;-84
2023/01/09 01:45:22;;;;;;;105.32;44.35;;;;;;;-141.97;84.82;47713.22;5012086;28;20526;-84
2023/01/09 01:47:51;;;;;;;112.37;45.37;;;;;;;-141.97;84.82;47651.69;5011416;28;20175;-84
2023/01/09 01:50:35;;;;;;;107.90;45.83;;;;;;;-141.97;85.49;47701.69;5012044;28;20448;-84
2023/01/09 01:53:15;;;;;;;98.75;42.55;;;;;;;-141.97;85.33;47715.13;5012919;28;20166;-84
2023/01/09 01:56:01;;;;;;;98.43;42.83;;;;;;;-141.97;85.19;47667.06;5012744;28;20169;-84
2023/01/09 01:58:27;;;;;;;96.70;44.30;;;;;;;-141.97;85.48;47749.72;5011545;28;20178;-85
2023/01/09 02:00:52;;;;;;;82.70;38.08;;;;;;;-141.97;85.59;47715.13;5019215;28;20187;-84
2023/01/09 02:03:24;;;;;;;90.50;37.93;;;;;;;-141.97;85.07;47703.59;5013632;28;20705;-84
2023/01/09 02:05:49;;;;;;;79.57;35.85;;;;;;;-141.97;84.70;47730.50;5012637;28;20242;-84
2023/01/09 02:08:15;;;;;;;76.27;33.93;;;;;;;-141.97;84.93;47674.78;5012604;28;20262;-84
2023/01/09 02:10:41;;;;;;;76.10;33.25;;;;;;;-141.97;85.09;47638.25;5011399;28;20250;-85
2023/01/09 02:13:08;;;;;;;71.50;31.00;;;;;;;-141.97;85.04;47738.19;5012693;28;20649;-85
2023/01/09 02:15:55;;;;;;;69.53;33.17;;;;;;;-141.97;85.05;47753.56;5010948;28;20171;-85
2023/01/09 02:18:26;;;;;;;72.07;32.80;;;;;;;-141.97;85.19;47688.22;5011396;28;20174;-85
2023/01/09 02:21:20;;;;;;;71.07;31.97;;;;;;;-141.97;85.07;47661.31;5012664;28;20453;-84
2023/01/09 02:23:55;;;;;;;71.63;32.23;;;;;;;-141.97;85.12;47678.63;5013944;28;20463;-84
2023/01/09 02:26:42;;;;;;;67.47;30.35;;;;;;;-141.97;85.71;47680.53;5014865;28;20456;-84
2023/01/09 02:29:19;;;;;;;71.88;32.30;;;;;;;-141.97;85.82;47703.59;5012424;28;20246;-85
2023/01/09 02:31:57;;;;;;;74.90;33.22;;;;;;;-141.97;85.99;47722.81;5012379;28;20245;-84
2023/01/09 02:34:40;;;;;;;69.72;31.63;;;;;;;-141.97;86.45;47688.22;5017308;28;20175;-84
2023/01/09 02:37:11;;;;;;;74.20;32.03;;;;;;;-141.97;86.65;47659.38;5018010;28;20166;-85
2023/01/09 02:39:46;;;;;;;71.82;32.42;;;;;;;-141.97;86.69;47694.00;5012079;28;20174;-85
2023/01/09 02:42:22;;;;;;;69.60;31.97;;;;;;;-141.97;86.46;47718.97;5014548;28;20210;-84
2023/01/09 02:44:48;;;;;;;81.70;34.65;;;;;;;-141.97;86.08;47688.22;5014586;28;20482;-84
2023/01/09 02:47:14;;;;;;;74.10;35.23;;;;;;;-141.97;85.89;47711.28;5011025;28;20555;-84
2023/01/09 02:49:41;;;;;;;78.50;36.30;;;;;;;-141.97;85.68;47694.00;5012611;28;20413;-84
2023/01/09 02:52:13;;;;;;;76.53;34.22;;;;;;;-141.97;85.48;47718.97;5012651;28;20158;-85
2023/01/09 02:54:50;;;;;;;75.60;33.15;;;;;;;-141.97;85.24;47684.38;5007617;28;20927;-84
2023/01/09 02:57:31;;;;;;;69.68;32.47;;;;;;;-141.97;84.92;47715.13;5024512;28;20252;-84
2023/01/09 03:00:07;;;;;;;75.93;32.85;;;;;;;-141.97;84.98;47713.22;5000721;28;20257;-84
2023/01/09 03:02:45;;;;;;;69.95;31.27;;;;;;;-141.97;84.38;47684.38;5000567;28;20484;-85
2023/01/09 03:05:31;;;;;;;76.05;32.72;;;;;;;-141.97;85.42;47715.13;5000504;28;20719;-84
2023/01/09 03:08:11;;;;;;;59.78;27.98;;;;;;;-141.97;86.44;47686.31;4998944;28;20245;-84
2023/01/09 03:11:01;;;;;;;68.57;31.95;;;;;;;-141.97;87.35;47715.13;5001569;28;20173;-83
2023/01/09 03:13:31;;;;;;;66.38;28.30;;;;;;;-141.97;88.08;47705.53;5001895;28;20653;-84
2023/01/09 03:15:59;;;;;;;70.85;30.08;;;;;;;-141.97;88.53;47722.81;5000321;28;20167;-85
2023/01/09 03:18:30;;;;;;;66.65;29.50;;;;;;;-141.97;89.34;47638.25;5004748;28;20673;-83
2023/01/09 03:20:55;;;;;;;70.40;30.13;;;;;;;-141.97;93.08;47732.44;5010848;28;20217;-84
2023/01/09 03:23:21;;;;;;;67.63;29.90;;;;;;;-141.97;99.56;47645.94;5010737;28;20553;-84
2023/01/09 03:25:47;;;;;;;71.73;30.90;;;;;;;-141.97;100.00;47722.81;5010448;28;20181;-84
2023/01/09 03:28:24;;;;;;;71.27;29.67;;;;;;;-141.97;100.00;47701.69;5012891;28;20618;-83
2023/01/09 03:30:50;;;;;;;65.00;29.77;;;;;;;-141.97;100.00;47755.50;5017286;28;20185;-84
2023/01/09 03:33:15;;;;;;;64.43;29.83;;;;;;;-141.97;100.00;47692.06;5010377;28;20190;-85
2023/01/09 03:35:40;;;;;;;67.70;29.10;;;;;;;-141.97;100.00;47676.69;5011398;28;20278;-85
2023/01/09 03:38:06;;;;;;;64.43;28.40;;;;;;;-141.97;100.00;47707.44;5010130;28;20253;-85
2023/01/09 03:40:31;;;;;;;65.10;29.63;;;;;;;-141.97;100.00;47761.25;5010503;28;20223;-85
2023/01/09 03:42:57;;;;;;;66.90;29.03;;;;;;;-141.97;100.00;47692.06;5011686;28;20167;-85
2023/01/09 03:45:22;;;;;;;67.20;29.77;;;;;;;-141.97;100.00;47765.09;5010197;28;20198;-85
2023/01/09 03:47:47;;;;;;;112.13;40.47;;;;;;;-141.97;100.00;47603.66;5013061;28;20178;-85
2023/01/09 03:50:13;;;;;;;164.17;52.37;;;;;;;-141.97;100.00;47749.72;5014302;28;20190;-85
2023/01/09 03:52:38;;;;;;;119.00;45.53;;;;;;;-141.97;100.00;47680.53;5018190;28;20237;-85
2023/01/09 03:55:04;;;;;;;129.70;46.97;;;;;;;-141.97;100.00;47711.28;5015133;28;20222;-85
2023/01/09 03:57:30;;;;;;;126.47;49.53;;;;;;;-141.97;100.00;47795.88;5013737;28;20167;-84
2023/01/09 03:59:55;;;;;;;104.57;42.13;;;;;;;-141.97;100.00;47672.84;5011437;28;20171;-84
2023/01/09 04:02:20;;;;;;;76.33;32.30;;;;;;;-141.97;100.00;47615.19;5013556;28;20164;-85
2023/01/09 04:04:46;;;;;;;91.03;37.20;;;;;;;-141.97;99.41;47665.16;5011030;28;20163;-83
2023/01/09 04:07:11;;;;;;;80.13;34.03;;;;;;;-141.97;99.84;47761.25;5012503;28;20170;-84
2023/01/09 04:09:36;;;;;;;69.33;30.40;;;;;;;-141.97;100.00;47703.59;5013135;28;20230;-86
2023/01/09 04:12:02;;;;;;;68.83;29.50;;;;;;;-141.97;99.46;47630.56;5020883;28;20264;-84
2023/01/09 04:14:27;;;;;;;67.77;29.50;;;;;;;-141.97;99.09;47636.31;5017263;28;20612;-84
2023/01/09 04:16:53;;;;;;;66.60;29.67;;;;;;;-141.97;99.88;47715.13;5016643;28;20162;-84
2023/01/09 04:19:18;;;;;;;61.50;26.93;;;;;;;-141.97;100.00;47661.31;5014990;28;20189;-87
2023/01/09 04:21:43;;;;;;;74.73;32.67;;;;;;;-141.97;100.00;47697.84;5013412;28;20687;-84
2023/01/09 04:24:09;;;;;;;69.30;30.47;;;;;;;-141.97;100.00;47742.03;5014804;28;20204;-85
2023/01/09 04:26:34;;;;;;;81.97;38.07;;;;;;;-141.97;100.00;47670.91;5016852;28;20166;-84
2023/01/09 04:28:59;;;;;;;75.70;34.90;;;;;;;-141.97;100.00;47745.88;5017777;28;20162;-87
2023/01/09 04:31:25;;;;;;;74.27;35.10;;;;;;;-141.97;99.91;47665.16;5019103;28;20235;-83
2023/01/09 04:33:50;;;;;;;101.40;42.17;;;;;;;-141.97;99.06;47730.50;5017405;28;20167;-84
2023/01/09 04:36:16;;;;;;;175.80;66.63;;;;;;;-141.97;97.82;47728.59;5021277;28;20266;-86
2023/01/09 04:38:41;;;;;;;169.67;60.87;;;;;;;-141.97;96.25;47651.69;5016908;28;20224;-86
2023/01/09 04:41:06;;;;;;;164.83;62.43;;;;;;;-141.97;95.08;47703.59;5016546;28;20609;-85
2023/01/09 04:43:32;;;;;;;116.47;49.23;;;;;;;-141.97;94.24;47715.13;5018581;28;20185;-86
2023/01/09 04:45:57;;;;;;;128.63;53.67;;;;;;;-141.97;93.48;47732.44;5016424;28;20178;-86
2023/01/09 04:48:23;;;;;;;137.60;57.43;;;;;;;-141.97;92.78;47734.34;5016725;28;20170;-85
2023/01/09 04:50:48;;;;;;;113.53;50.57;;;;;;;-141.97;92.19;47686.31;5016581;28;20167;-87
2023/01/09 04:53:13;;;;;;;94.00;42.07;;;;;;;-141.97;91.47;47765.09;5014652;28;20229;-86
2023/01/09 04:55:40;;;;;;;68.43;31.83;;;;;;;-141.97;91.09;47765.09;5018107;28;20162;-85
2023/01/09 04:58:05;;;;;;;68.70;29.67;;;;;;;-141.97;91.04;47676.69;5017435;28;20170;-85
2023/01/09 05:00:31;;;;;;;65.90;29.47;;;;;;;-141.97;91.34;47628.63;5015327;28;20925;-85
2023/01/09 05:02:57;;;;;;;61.03;28.50;;;;;;;-141.97;91.55;47655.53;5016929;28;20166;-89
2023/01/09 05:05:22;;;;;;;57.63;25.90;;;;;;;-141.97;92.14;47730.50;5015768;28;20324;-85
2023/01/09 05:07:47;;;;;;;53.30;25.47;;;;;;;-141.97;93.11;47718.97;5014963;28;20187;-84
2023/01/09 05:10:13;;;;;;;55.70;24.10;;;;;;;-141.97;94.50;47757.41;5016678;28;20170;-85
2023/01/09 05:12:38;;;;;;;55.60;22.77;;;;;;;-141.97;95.74;47615.19;5017476;28;20174;-85
2023/01/09 05:15:06;;;;;;;69.53;29.63;;;;;;;-141.97;97.32;47703.59;5016732;28;20158;-86
2023/01/09 05:17:31;;;;;;;66.88;31.05;;;;;;;-141.97;98.10;47776.63;5016584;28;20171;-87
2023/01/09 05:19:56;;;;;;;58.20;23.17;;;;;;;-141.97;98.17;47634.41;5014422;28;20571;-89
2023/01/09 05:22:22;;;;;;;79.53;32.03;;;;;;;-141.97;98.51;47751.66;5015453;28;20171;-85
2023/01/09 05:24:47;;;;;;;76.63;32.97;;;;;;;-141.97;98.34;47755.50;5014514;28;20178;-85
2023/01/09 05:27:15;;;;;;;67.57;31.40;;;;;;;-141.97;97.91;47680.53;5016250;28;20174;-85
2023/01/09 05:29:40;;;;;;;74.28;30.33;;;;;;;-141.97;97.71;47695.91;5016102;28;20167;-86
2023/01/09 05:32:06;;;;;;;71.23;30.90;;;;;;;-141.97;97.43;47661.31;5013997;28;20648;-85
2023/01/09 05:34:31;;;;;;;65.10;31.37;;;;;;;-141.97;96.88;47749.72;5015256;28;20249;-84
2023/01/09 05:36:56;;;;;;;65.10;31.97;;;;;;;-141.97;95.93;47742.03;5016325;28;20646;-85
2023/01/09 05:39:22;;;;;;;75.83;31.97;;;;;;;-141.97;95.70;47655.53;4993346;28;22444;-83
2023/01/09 05:41:47;;;;;;;74.00;34.77;;;;;;;-141.97;95.60;47726.66;5009324;28;20221;-86
2023/01/09 05:44:13;;;;;;;75.70;33.67;;;;;;;-141.97;95.07;47657.47;4999837;28;20178;-85
2023/01/09 05:46:38;;;;;;;73.73;33.67;;;;;;;-141.97;93.75;47753.56;5012195;28;20682;-85
2023/01/09 05:49:04;;;;;;;80.83;38.70;;;;;;;-141.97;93.75;47715.13;5011313;28;20191;-84
2023/01/09 05:51:30;;;;;;;66.20;32.73;;;;;;;-141.97;94.31;47684.38;5014768;28;20198;-86
2023/01/09 05:53:56;;;;;;;160.23;74.30;;;;;;;-141.97;93.68;47722.81;5012444;28;20758;-88
2023/01/09 05:56:22;;;;;;;119.03;50.73;;;;;;;-141.97;92.96;47699.75;5012074;28;20437;-87
2023/01/09 05:58:47;;;;;;;100.50;43.90;;;;;;;-141.97;92.88;47742.03;5012165;28;20526;-86
2023/01/09 06:01:13;;;;;;;90.67;39.10;;;;;;;-141.97;92.55;47722.81;5013404;28;20209;-87
2023/01/09 06:03:38;;;;;;;186.27;69.17;;;;;;;-141.97;92.64;47649.78;5012171;28;20245;-85
2023/01/09 06:06:03;;;;;;;142.80;57.03;;;;;;;-141.97;92.93;47770.88;5012260;28;20214;-85
2023/01/09 06:08:29;;;;;;;105.50;44.67;;;;;;;-141.97;93.04;47709.38;5014956;28;20179;-85
2023/01/09 06:10:54;;;;;;;101.57;43.47;;;;;;;-141.97;92.64;47697.84;5012208;28;20276;-84
2023/01/09 06:13:20;;;;;;;112.60;49.03;;;;;;;-141.97;91.35;47790.09;5014503;28;20278;-87
2023/01/09 06:15:47;;;;;;;185.50;75.97;;;;;;;-141.97;91.40;47726.66;5012679;28;20193;-84
2023/01/09 06:18:12;;;;;;;116.67;52.33;;;;;;;-141.97;91.22;47699.75;5011798;28;20178;-83
2023/01/09 06:20:38;;;;;;;88.83;39.50;;;;;;;-141.97;90.99;47717.06;5011537;28;20475;-85
2023/01/09 06:23:03;;;;;;;73.67;33.73;;;;;;;-141.97;92.98;47768.94;5011292;28;20187;-84
2023/01/09 06:25:28;;;;;;;72.60;34.17;;;;;;;-141.97;95.30;47622.88;5011141;28;20218;-85
2023/01/09 06:27:54;;;;;;;86.83;38.00;;;;;;;-141.97;95.08;47784.34;5012166;28;20578;-85
2023/01/09 06:30:19;;;;;;;73.87;32.33;;;;;;;-141.97;94.58;47676.69;5010844;28;20618;-85
2023/01/09 06:32:48;;;;;;;75.30;33.63;;;;;;;-141.97;93.49;47709.38;5016615;28;20207;-84
2023/01/09 06:35:13;;;;;;;81.77;37.60;;;;;;;-141.97;92.86;47792.03;5016268;28;20186;-86
2023/01/09 06:37:39;;;;;;;73.43;35.20;;;;;;;-141.97;93.28;47715.13;5022388;28;20441;-85
2023/01/09 06:40:05;;;;;;;155.20;64.13;;;;;;;-141.97;92.62;47692.06;5006048;28;21016;-85
2023/01/09 06:42:30;;;;;;;245.93;88.50;;;;;;;-141.97;91.65;47692.06;5014063;28;20187;-87
2023/01/09 06:44:55;;;;;;;190.47;73.70;;;;;;;-141.97;90.36;47722.81;5014395;28;20433;-86
2023/01/09 06:47:21;;;;;;;158.27;63.97;;;;;;;-141.97;89.32;47793.94;5014070;28;20196;-85
2023/01/09 06:49:46;;;;;;;154.43;65.70;;;;;;;-141.97;88.83;47703.59;5014806;28;20182;-83
2023/01/09 06:52:12;;;;;;;168.40;70.70;;;;;;;-141.97;88.68;47669.00;5012887;28;20210;-86
2023/01/09 06:54:38;;;;;;;246.50;98.77;;;;;;;-141.97;88.25;47665.16;5013794;28;20214;-87
2023/01/09 06:57:03;;;;;;;181.30;76.97;;;;;;;-141.97;88.17;47645.94;5014646;28;20422;-84
2023/01/09 06:59:28;;;;;;;172.10;63.63;;;;;;;-141.97;88.44;47688.22;5011877;28;20218;-84
2023/01/09 07:01:54;;;;;;;181.00;64.63;;;;;;;-141.97;88.14;47728.59;5009817;28;20206;-83
2023/01/09 07:04:21;;;;;;;139.67;53.80;;;;;;;-141.97;88.68;47793.94;5014129;28;20230;-85
2023/01/09 07:06:47;;;;;;;122.77;43.70;;;;;;;-141.97;90.16;47605.56;5014281;28;20241;-83
2023/01/09 07:09:13;;;;;;;150.33;51.67;;;;;;;-141.97;92.95;47753.56;5011676;28;20484;-83
2023/01/09 07:11:39;;;;;;;150.30;50.57;;;;;;;-141.97;94.99;47726.66;5010458;28;20839;-83
2023/01/09 07:14:05;;;;;;;196.13;77.33;;;;;;;-141.97;94.85;47661.31;5011791;28;20159;-83
2023/01/09 07:16:31;;;;;;;209.40;74.57;;;;;;;-141.97;94.36;47776.63;5012413;28;20424;-84
2023/01/09 07:18:56;;;;;;;165.47;59.80;;;;;;;-141.97;94.44;47705.53;5010635;28;20314;-84
2023/01/09 07:21:22;;;;;;;157.87;59.77;;;;;;;-141.97;94.88;47728.59;5011936;28;20191;-85
2023/01/09 07:23:48;;;;;;;231.90;83.43;;;;;;;-141.97;94.59;47732.44;5010657;28;20166;-84
2023/01/09 07:26:13;;;;;;;186.53;65.93;;;;;;;-141.97;94.23;47661.31;5015154;28;20178;-85
2023/01/09 07:28:38;;;;;;;193.40;62.73;;;;;;;-141.97;93.11;47728.59;5032641;28;20410;-86
2023/01/09 07:31:06;;;;;;;261.30;88.07;;;;;;;-141.97;92.55;47688.22;5014219;28;20195;-85
2023/01/09 07:33:32;;;;;;;246.13;86.70;;;;;;;-141.97;92.31;47740.13;5010891;28;20163;-84
2023/01/09 07:35:57;;;;;;;141.87;43.67;;;;;;;-141.97;92.25;47678.63;5010758;28;20484;-84
2023/01/09 07:38:23;;;;;;;137.43;45.70;;;;;;;-141.97;92.53;47772.78;5012213;28;20813;-84
2023/01/09 07:40:48;;;;;;;148.07;47.17;;;;;;;-141.97;92.68;47707.44;5010843;28;20282;-84
2023/01/09 07:43:14;;;;;;;139.17;44.70;;;;;;;-141.97;92.82;47711.28;5012504;28;20542;-84
2023/01/09 07:45:39;;;;;;;157.07;49.13;;;;;;;-141.97;92.86;47713.22;5016329;28;20217;-84
2023/01/09 07:48:05;;;;;;;153.57;49.30;;;;;;;-141.97;92.73;47688.22;5016088;28;20162;-83
2023/01/09 07:50:31;;;;;;;171.40;54.23;;;;;;;-141.97;92.79;47657.47;5015547;28;20155;-84
2023/01/09 07:52:56;;;;;;;177.43;61.40;;;;;;;-141.97;92.51;47607.50;5018321;28;20460;-87
2023/01/09 07:55:21;;;;;;;222.07;76.07;;;;;;;-141.97;92.39;47684.38;5016655;28;20168;-84
2023/01/09 07:57:48;;;;;;;245.37;92.97;;;;;;;-141.97;92.01;47705.53;5014526;28;20202;-84
2023/01/09 08:00:14;;;;;;;278.27;101.57;;;;;;;-141.97;91.27;47792.03;5015660;28;20248;-85
2023/01/09 08:02:40;;;;;;;254.87;90.07;;;;;;;-141.97;90.65;47699.75;5015374;28;20412;-84
2023/01/09 08:05:07;;;;;;;182.33;63.10;;;;;;;-141.97;90.62;47799.72;5013963;28;20170;-84
2023/01/09 08:07:33;;;;;;;192.87;68.23;;;;;;;-141.97;90.65;47730.50;5017442;28;20170;-85
2023/01/09 08:09:58;;;;;;;192.37;63.67;;;;;;;-141.97;90.38;47799.72;5018653;28;20472;-84
2023/01/09 08:12:23;;;;;;;214.47;65.83;;;;;;;-141.97;90.45;47759.34;5020521;28;20194;-85
2023/01/09 08:14:50;;;;;;;213.73;68.20;;;;;;;-141.97;90.43;47726.66;5022344;28;20261;-83
2023/01/09 08:17:15;;;;;;;166.00;50.10;;;;;;;-141.97;91.31;47699.75;5018571;28;20173;-84
2023/01/09 08:19:42;;;;;;;167.80;53.27;;;;;;;-141.97;91.88;47740.13;5016651;28;20418;-84
2023/01/09 08:22:08;;;;;;;177.00;51.47;;;;;;;-141.97;92.25;47715.13;5019811;28;20560;-84
2023/01/09 08:24:35;;;;;;;156.20;48.17;;;;;;;-141.97;92.99;47726.66;5017032;28;20413;-85
2023/01/09 08:27:01;;;;;;;152.53;45.73;;;;;;;-141.97;93.93;47676.69;5017594;28;20167;-84
2023/01/09 08:29:29;;;;;;;159.27;42.47;;;;;;;-141.97;94.68;47717.06;5016792;28;20449;-85
2023/01/09 08:31:55;;;;;;;159.67;49.10;;;;;;;-141.97;95.72;47751.66;5018015;28;20460;-84
2023/01/09 08:34:20;;;;;;;185.23;52.63;;;;;;;-141.97;95.80;47722.81;5017354;28;20405;-84
2023/01/09 08:36:46;;;;;;;173.00;50.80;;;;;;;-141.97;96.32;47669.00;5019411;28;20178;-85
2023/01/09 08:39:11;;;;;;;229.37;65.13;;;;;;;-141.97;97.04;47768.94;5020857;28;20175;-85
2023/01/09 08:47:05;;;;;;;167.80;49.00;;;;;;;-141.97;94.47;47707.44;5033229;28;20405;-84
2023/01/09 08:49:35;;;;;;;185.97;52.33;;;;;;;-141.97;94.17;47715.13;5028864;28;20421;-85
2023/01/09 08:52:00;;;;;;;173.60;47.63;;;;;;;-141.97;94.45;47742.03;5019189;28;20170;-83
2023/01/09 08:54:29;;;;;;;157.20;47.40;;;;;;;-141.97;93.71;47730.50;5018984;28;20551;-83
2023/01/09 08:56:55;;;;;;;160.53;48.20;;;;;;;-141.97;93.08;47805.47;5020299;28;20178;-82
2023/01/09 08:59:20;;;;;;;175.57;50.07;;;;;;;-141.97;92.59;47726.66;5018862;28;20799;-84
2023/01/09 09:01:46;;;;;;;152.67;44.93;;;;;;;-141.97;92.26;47738.19;5019074;28;20205;-85
2023/01/09 09:04:11;;;;;;;165.23;49.93;;;;;;;-141.97;92.04;47738.19;5019025;28;20586;-84
2023/01/09 09:06:37;;;;;;;177.87;49.60;;;;;;;-141.97;91.43;47755.50;5019155;28;20207;-83
2023/01/09 09:09:02;;;;;;;161.97;46.07;;;;;;;-141.97;91.11;47647.84;5019225;28;20185;-84
2023/01/09 09:11:32;;;;;;;177.70;47.07;;;;;;;-141.97;90.89;47765.09;5017747;28;20452;-84
2023/01/09 09:13:58;;;;;;;188.57;55.20;;;;;;;-141.97;90.90;47768.94;5016667;28;20167;-84
2023/01/09 09:16:25;;;;;;;202.73;54.87;;;;;;;-141.97;90.08;47786.25;5016256;28;20405;-84
2023/01/09 09:18:50;;;;;;;207.37;58.03;;;;;;;-141.97;90.25;47738.19;5014144;28;20422;-84
2023/01/09 09:21:16;;;;;;;215.43;64.23;;;;;;;-141.97;90.00;47709.38;5014032;28;20515;-84
2023/01/09 09:23:43;;;;;;;188.00;57.33;;;;;;;-141.97;90.06;47713.22;5015019;28;20183;-83
2023/01/09 09:26:08;;;;;;;198.20;57.37;;;;;;;-141.97;89.96;47745.88;5016923;28;20258;-85
2023/01/09 09:28:34;;;;;;;223.37;69.57;;;;;;;-141.97;89.13;47765.09;5015906;28;20435;-84
2023/01/09 09:31:00;;;;;;;283.70;86.53;;;;;;;-141.97;89.30;47655.53;5013197;28;20229;-83
2023/01/09 09:33:25;;;;;;;236.70;71.87;;;;;;;-141.97;90.84;47734.34;5012406;28;20227;-83
2023/01/09 09:35:50;;;;;;;276.60;81.73;;;;;;;-141.97;91.80;47684.38;5012434;28;20217;-83
2023/01/09 09:38:16;;;;;;;243.57;64.20;;;;;;;-141.97;93.13;47726.66;5013718;28;20253;-85
2023/01/09 09:44:41;;;;;;;222.80;65.13;;;;;;;-141.97;93.66;47726.66;5013888;28;20194;-83
2023/01/09 09:44:42;;;;;;;254.83;71.67;;;;;;;-141.97;96.46;47705.53;5013783;28;20402;-83
2023/01/09 09:47:30;;;;;;;246.07;73.10;;;;;;;-141.97;98.13;47751.66;4972679;28;20455;-83
2023/01/09 09:50:01;;;;;;;262.73;77.77;;;;;;;-141.97;98.13;47717.06;4972734;28;20904;-83
2023/01/09 09:52:56;;;;;;;249.37;74.33;;;;;;;-141.97;97.89;47749.72;4956118;28;20488;-84
2023/01/09 09:55:31;;;;;;;276.43;85.37;;;;;;;-141.97;97.85;47703.59;4972518;28;20467;-84
2023/01/09 09:58:01;;;;;;;273.83;77.00;;;;;;;-141.97;99.85;47765.09;4972557;28;20430;-84
2023/01/09 10:00:26;;;;;;;253.97;64.80;;;;;;;-141.97;100.00;47717.06;4972053;28;20574;-84
2023/01/09 10:03:04;;;;;;;241.87;64.90;;;;;;;-141.97;100.00;47676.69;4971715;28;20455;-84
2023/01/09 10:05:35;;;;;;;206.80;51.67;;;;;;;-141.97;100.00;47699.75;4955411;28;20180;-84
2023/01/09 10:08:14;;;;;;;264.27;67.27;;;;;;;-141.97;100.00;47836.22;4971875;28;20408;-83
2023/01/09 10:10:46;;;;;;;244.07;61.57;;;;;;;-141.97;100.00;47715.13;4955131;28;20419;-83
2023/01/09 10:16:43;;;;;;;249.43;62.37;;;;;;;-141.97;100.00;47734.34;4972132;28;20423;-83
2023/01/09 10:19:36;;;;;;;214.17;53.60;;;;;;;-141.97;100.00;47772.78;4914159;29;20438;-84
2023/01/09 10:22:04;;;;;;;191.87;48.57;;;;;;;-141.97;100.00;47778.56;4929587;28;20501;-83
2023/01/09 10:25:02;;;;;;;279.00;77.13;;;;;;;-141.97;100.00;47715.13;4974559;28;21050;-83
2023/01/09 10:27:58;;;;;;;230.03;67.33;;;;;;;-141.97;100.00;47742.03;4973587;28;20891;-83
2023/01/09 10:30:47;;;;;;;268.17;80.40;;;;;;;-141.97;100.00;47728.59;4972636;28;20459;-83
2023/01/09 10:33:12;;;;;;;233.80;73.33;;;;;;;-141.97;100.00;47757.41;4972271;28;20549;-83
2023/01/09 10:35:49;;;;;;;233.03;68.13;;;;;;;-141.97;100.00;47776.63;4971312;28;20919;-84
2023/01/09 10:38:22;;;;;;;254.20;80.43;;;;;;;-141.97;100.00;47694.00;4973415;28;20570;-83
2023/01/09 10:40:55;;;;;;;300.47;101.80;;;;;;;-141.97;100.00;47742.03;4972163;28;20551;-83
2023/01/09 10:43:50;;;;;;;254.67;81.13;;;;;;;-141.97;100.00;47745.88;4973730;28;20446;-83
2023/01/09 10:46:31;;;;;;;226.13;62.33;;;;;;;-141.97;100.00;47740.13;4953378;29;20831;-85
2023/01/09 10:49:04;;;;;;;194.37;53.70;;;;;;;-141.97;100.00;47734.34;4951169;29;20427;-83
2023/01/09 10:51:49;;;;;;;179.80;48.17;;;;;;;-141.97;100.00;47799.72;4951385;29;20416;-83
2023/01/09 10:54:17;;;;;;;246.03;76.77;;;;;;;-141.97;100.00;47759.34;4951909;29;21004;-83
2023/01/09 10:57:13;;;;;;;243.00;66.40;;;;;;;-141.97;100.00;47751.66;4955030;28;20416;-83
2023/01/09 10:59:40;;;;;;;210.17;57.90;;;;;;;-141.97;100.00;47732.44;4910411;29;20556;-84
2023/01/09 11:02:25;;;;;;;321.77;97.40;;;;;;;-141.97;100.00;47768.94;4929899;29;20621;-83
2023/01/09 11:04:50;;;;;;;217.63;56.87;;;;;;;-141.97;100.00;47780.47;4922617;29;20432;-84
2023/01/09 11:07:23;;;;;;;245.50;60.73;;;;;;;-141.97;100.00;47740.13;4915086;29;20417;-83
2023/01/09 11:10:10;;;;;;;255.20;70.63;;;;;;;-141.97;100.00;47749.72;4914481;29;20643;-84
2023/01/09 11:12:37;;;;;;;247.90;74.50;;;;;;;-141.97;100.00;47818.94;4898885;29;21025;-83
2023/01/09 11:15:14;;;;;;;278.40;83.87;;;;;;;-141.97;100.00;47730.50;4898485;29;20422;-83